Portada
METAR-TAF:

METAR-TAF

Aeropuertos :

Bartlesville, Oklahoma, Estados Unidos

latitud: 36-46-06N, longitud: 096-01-34W, altitud: 217 m

Observación

El informe se hizo hace 40 minutos, a las 05:53 UTC
Viento 3 kt del sur-suroeste
Temperatura 25°C
Humedad 89%
Presión 1013 hPa
Visibilidad: 16.1 km
Cielo despejado

METAR: KBVO 070553Z 21003KT 10SM CLR 25/23 A2990 RMK AO2 SLP113 T02500228 10333 20233 403440206 51006

Hora: 01:33 (06:33 UTC)

Pronóstico

El informe se hizo hace 1 hora y 13 minutos, a las 05:20 UTC
Pronóstico válido del 07 a las 06 UTC al 08 a las 06 UTC
Viento 6 kt del sur-sureste
Visibilidad: 10 km
Cielo despejado
A partir de las 07 a las 1700 UTC
Viento 9 kt del sur
Visibilidad: 10 km
Escasas nubes a una altura de 5000 ft
A partir de las 08 a las 0000 UTC
Viento 4 kt del sur-sureste
Visibilidad: 10 km
Escasas nubes a una altura de 10000 ft

TAF: KBVO 070520Z 0706/0806 16006KT P6SM SKC FM071700 17009KT P6SM FEW050 FM080000 15004KT P6SM FEW100

Observaciones y pronósticos meteorológicos de más de 4000 aeropuertos (mensajes METAR y TAF).

Los puntos amarillos y rojos representan las estaciones disponibles.

Ponga el ratón en el punto deseado para ver el nombre de la estación.

Haga clic para ver las observaciones y los pronósticos meteorológicos.

Para cambiar el mapa : haga clic en los botones verdes con una cruz de color negro para hacer un zoom, en el botón verde con un guión para alejar o en las flechas verdes para mapas adyacentes.


METAR-TAF: